sensor_id;sensor_type;location;lat;lon;timestamp;pressure;altitude;pressure_sealevel;temperature
18782;BMP180;9519;51.890;8.970;2023-07-31T00:02:46;98942.00;;;15.40
18782;BMP180;9519;51.890;8.970;2023-07-31T00:07:49;98926.00;;;15.40
18782;BMP180;9519;51.890;8.970;2023-07-31T00:12:51;98913.00;;;15.40
18782;BMP180;9519;51.890;8.970;2023-07-31T00:17:53;98914.00;;;15.30
18782;BMP180;9519;51.890;8.970;2023-07-31T00:22:57;98904.00;;;15.30
18782;BMP180;9519;51.890;8.970;2023-07-31T00:27:59;98903.00;;;15.30
18782;BMP180;9519;51.890;8.970;2023-07-31T00:33:01;98883.00;;;15.30
18782;BMP180;9519;51.890;8.970;2023-07-31T00:38:04;98870.00;;;15.30
18782;BMP180;9519;51.890;8.970;2023-07-31T00:43:06;98859.00;;;15.30
18782;BMP180;9519;51.890;8.970;2023-07-31T00:48:08;98862.00;;;15.30
18782;BMP180;9519;51.890;8.970;2023-07-31T00:53:12;98856.00;;;15.30
18782;BMP180;9519;51.890;8.970;2023-07-31T00:58:15;98839.00;;;15.30
18782;BMP180;9519;51.890;8.970;2023-07-31T01:03:17;98833.00;;;15.30
18782;BMP180;9519;51.890;8.970;2023-07-31T01:08:29;98832.00;;;15.30
18782;BMP180;9519;51.890;8.970;2023-07-31T01:13:35;98812.00;;;15.30
18782;BMP180;9519;51.890;8.970;2023-07-31T01:18:37;98811.00;;;15.30
18782;BMP180;9519;51.890;8.970;2023-07-31T01:24:09;98814.00;;;15.30
18782;BMP180;9519;51.890;8.970;2023-07-31T01:29:30;98816.00;;;15.30
18782;BMP180;9519;51.890;8.970;2023-07-31T01:34:35;98803.00;;;15.30
18782;BMP180;9519;51.890;8.970;2023-07-31T01:39:38;98824.00;;;15.30
18782;BMP180;9519;51.890;8.970;2023-07-31T01:44:42;98815.00;;;15.20
18782;BMP180;9519;51.890;8.970;2023-07-31T01:49:44;98815.00;;;15.10
18782;BMP180;9519;51.890;8.970;2023-07-31T01:54:46;98809.00;;;15.00
18782;BMP180;9519;51.890;8.970;2023-07-31T01:59:49;98810.00;;;14.90
18782;BMP180;9519;51.890;8.970;2023-07-31T02:04:53;98819.00;;;14.80
18782;BMP180;9519;51.890;8.970;2023-07-31T02:09:56;98809.00;;;14.70
18782;BMP180;9519;51.890;8.970;2023-07-31T02:14:59;98803.00;;;14.60
18782;BMP180;9519;51.890;8.970;2023-07-31T02:20:01;98811.00;;;14.60
18782;BMP180;9519;51.890;8.970;2023-07-31T02:25:05;98803.00;;;14.50
18782;BMP180;9519;51.890;8.970;2023-07-31T02:30:10;98791.00;;;14.50
18782;BMP180;9519;51.890;8.970;2023-07-31T02:35:12;98788.00;;;14.40
18782;BMP180;9519;51.890;8.970;2023-07-31T02:40:16;98795.00;;;14.40
18782;BMP180;9519;51.890;8.970;2023-07-31T02:45:21;98784.00;;;14.40
18782;BMP180;9519;51.890;8.970;2023-07-31T02:50:23;98781.00;;;14.40
18782;BMP180;9519;51.890;8.970;2023-07-31T02:55:25;98778.00;;;14.50
18782;BMP180;9519;51.890;8.970;2023-07-31T03:00:28;98773.00;;;14.50
18782;BMP180;9519;51.890;8.970;2023-07-31T03:05:30;98783.00;;;14.50
18782;BMP180;9519;51.890;8.970;2023-07-31T03:10:32;98760.00;;;14.50
18782;BMP180;9519;51.890;8.970;2023-07-31T03:15:36;98773.00;;;14.50
18782;BMP180;9519;51.890;8.970;2023-07-31T03:20:42;98764.00;;;14.60
18782;BMP180;9519;51.890;8.970;2023-07-31T03:25:56;98758.00;;;14.60
18782;BMP180;9519;51.890;8.970;2023-07-31T03:31:00;98767.00;;;14.70
18782;BMP180;9519;51.890;8.970;2023-07-31T03:36:03;98757.00;;;14.70
18782;BMP180;9519;51.890;8.970;2023-07-31T03:41:05;98767.00;;;14.80
18782;BMP180;9519;51.890;8.970;2023-07-31T03:46:08;98745.00;;;14.80
18782;BMP180;9519;51.890;8.970;2023-07-31T03:51:10;98740.00;;;14.90
18782;BMP180;9519;51.890;8.970;2023-07-31T03:56:13;98719.00;;;15.00
18782;BMP180;9519;51.890;8.970;2023-07-31T04:01:16;98731.00;;;15.00
18782;BMP180;9519;51.890;8.970;2023-07-31T04:06:20;98726.00;;;15.00
18782;BMP180;9519;51.890;8.970;2023-07-31T04:11:22;98710.00;;;15.10
18782;BMP180;9519;51.890;8.970;2023-07-31T04:16:25;98730.00;;;15.00
18782;BMP180;9519;51.890;8.970;2023-07-31T04:21:27;98728.00;;;15.10
18782;BMP180;9519;51.890;8.970;2023-07-31T04:26:29;98724.00;;;15.10
18782;BMP180;9519;51.890;8.970;2023-07-31T04:31:34;98725.00;;;15.10
18782;BMP180;9519;51.890;8.970;2023-07-31T04:36:36;98724.00;;;15.10
18782;BMP180;9519;51.890;8.970;2023-07-31T04:41:38;98728.00;;;15.10
18782;BMP180;9519;51.890;8.970;2023-07-31T04:46:41;98722.00;;;15.10
18782;BMP180;9519;51.890;8.970;2023-07-31T04:51:43;98723.00;;;15.00
18782;BMP180;9519;51.890;8.970;2023-07-31T04:56:45;98725.00;;;15.00
18782;BMP180;9519;51.890;8.970;2023-07-31T05:01:49;98725.00;;;15.00
18782;BMP180;9519;51.890;8.970;2023-07-31T05:06:51;98723.00;;;14.90
18782;BMP180;9519;51.890;8.970;2023-07-31T05:11:53;98728.00;;;15.00
18782;BMP180;9519;51.890;8.970;2023-07-31T05:16:57;98729.00;;;15.00
18782;BMP180;9519;51.890;8.970;2023-07-31T05:21:59;98724.00;;;15.00
18782;BMP180;9519;51.890;8.970;2023-07-31T05:27:01;98721.00;;;15.00
18782;BMP180;9519;51.890;8.970;2023-07-31T05:32:06;98714.00;;;15.00
18782;BMP180;9519;51.890;8.970;2023-07-31T05:37:10;98720.00;;;15.00
18782;BMP180;9519;51.890;8.970;2023-07-31T05:42:12;98720.00;;;15.10
18782;BMP180;9519;51.890;8.970;2023-07-31T05:47:16;98714.00;;;15.20
18782;BMP180;9519;51.890;8.970;2023-07-31T05:52:18;98710.00;;;15.20
18782;BMP180;9519;51.890;8.970;2023-07-31T05:57:20;98708.00;;;15.20
18782;BMP180;9519;51.890;8.970;2023-07-31T06:02:24;98707.00;;;15.30
18782;BMP180;9519;51.890;8.970;2023-07-31T06:07:26;98714.00;;;15.30
18782;BMP180;9519;51.890;8.970;2023-07-31T06:12:28;98712.00;;;15.40
18782;BMP180;9519;51.890;8.970;2023-07-31T06:17:31;98720.00;;;15.40
18782;BMP180;9519;51.890;8.970;2023-07-31T06:22:34;98709.00;;;15.40
18782;BMP180;9519;51.890;8.970;2023-07-31T06:27:36;98715.00;;;15.50
18782;BMP180;9519;51.890;8.970;2023-07-31T06:32:39;98706.00;;;15.50
18782;BMP180;9519;51.890;8.970;2023-07-31T06:37:42;98703.00;;;15.50
18782;BMP180;9519;51.890;8.970;2023-07-31T06:42:45;98703.00;;;15.60
18782;BMP180;9519;51.890;8.970;2023-07-31T06:47:48;98701.00;;;15.60
18782;BMP180;9519;51.890;8.970;2023-07-31T06:52:50;98688.00;;;15.70
18782;BMP180;9519;51.890;8.970;2023-07-31T06:57:54;98698.00;;;15.70
18782;BMP180;9519;51.890;8.970;2023-07-31T07:02:58;98709.00;;;15.80
18782;BMP180;9519;51.890;8.970;2023-07-31T07:08:00;98682.00;;;15.80
18782;BMP180;9519;51.890;8.970;2023-07-31T07:13:02;98688.00;;;15.80
18782;BMP180;9519;51.890;8.970;2023-07-31T07:18:06;98684.00;;;15.80
18782;BMP180;9519;51.890;8.970;2023-07-31T07:23:08;98692.00;;;15.80
18782;BMP180;9519;51.890;8.970;2023-07-31T07:28:10;98692.00;;;15.80
18782;BMP180;9519;51.890;8.970;2023-07-31T07:33:13;98687.00;;;15.80
18782;BMP180;9519;51.890;8.970;2023-07-31T07:38:16;98697.00;;;15.80
18782;BMP180;9519;51.890;8.970;2023-07-31T07:43:19;98699.00;;;15.70
18782;BMP180;9519;51.890;8.970;2023-07-31T07:48:23;98689.00;;;15.60
18782;BMP180;9519;51.890;8.970;2023-07-31T07:53:26;98701.00;;;15.60
18782;BMP180;9519;51.890;8.970;2023-07-31T07:58:28;98705.00;;;15.70
18782;BMP180;9519;51.890;8.970;2023-07-31T08:03:31;98701.00;;;15.80
18782;BMP180;9519;51.890;8.970;2023-07-31T08:08:33;98688.00;;;15.80
18782;BMP180;9519;51.890;8.970;2023-07-31T08:13:38;98676.00;;;15.80
18782;BMP180;9519;51.890;8.970;2023-07-31T08:18:41;98676.00;;;15.80
18782;BMP180;9519;51.890;8.970;2023-07-31T08:23:44;98660.00;;;15.60
18782;BMP180;9519;51.890;8.970;2023-07-31T08:28:46;98636.00;;;15.80
18782;BMP180;9519;51.890;8.970;2023-07-31T08:33:49;98637.00;;;15.80
18782;BMP180;9519;51.890;8.970;2023-07-31T08:38:52;98637.00;;;15.80
18782;BMP180;9519;51.890;8.970;2023-07-31T08:43:56;98631.00;;;15.90
18782;BMP180;9519;51.890;8.970;2023-07-31T08:49:04;98601.00;;;16.00
18782;BMP180;9519;51.890;8.970;2023-07-31T08:54:07;98596.00;;;16.00
18782;BMP180;9519;51.890;8.970;2023-07-31T08:59:09;98598.00;;;16.20
18782;BMP180;9519;51.890;8.970;2023-07-31T09:04:16;98603.00;;;16.20
18782;BMP180;9519;51.890;8.970;2023-07-31T09:09:20;98588.00;;;16.20
18782;BMP180;9519;51.890;8.970;2023-07-31T09:14:22;98592.00;;;16.30
18782;BMP180;9519;51.890;8.970;2023-07-31T09:19:31;98585.00;;;16.30
18782;BMP180;9519;51.890;8.970;2023-07-31T09:24:35;98594.00;;;16.30
18782;BMP180;9519;51.890;8.970;2023-07-31T09:29:37;98594.00;;;16.30
18782;BMP180;9519;51.890;8.970;2023-07-31T09:34:40;98594.00;;;16.40
18782;BMP180;9519;51.890;8.970;2023-07-31T09:39:47;98601.00;;;16.50
18782;BMP180;9519;51.890;8.970;2023-07-31T09:44:49;98590.00;;;16.60
18782;BMP180;9519;51.890;8.970;2023-07-31T09:49:53;98593.00;;;16.70
18782;BMP180;9519;51.890;8.970;2023-07-31T09:54:56;98582.00;;;16.80
18782;BMP180;9519;51.890;8.970;2023-07-31T10:00:00;98580.00;;;16.90
18782;BMP180;9519;51.890;8.970;2023-07-31T10:05:05;98588.00;;;17.00
18782;BMP180;9519;51.890;8.970;2023-07-31T10:10:09;98580.00;;;17.10
18782;BMP180;9519;51.890;8.970;2023-07-31T10:15:11;98576.00;;;17.20
18782;BMP180;9519;51.890;8.970;2023-07-31T10:20:17;98592.00;;;17.20
18782;BMP180;9519;51.890;8.970;2023-07-31T10:25:21;98576.00;;;17.20
18782;BMP180;9519;51.890;8.970;2023-07-31T10:30:27;98568.00;;;17.20
18782;BMP180;9519;51.890;8.970;2023-07-31T10:35:33;98573.00;;;17.20
18782;BMP180;9519;51.890;8.970;2023-07-31T10:40:35;98565.00;;;17.20
18782;BMP180;9519;51.890;8.970;2023-07-31T10:45:42;98572.00;;;17.20
18782;BMP180;9519;51.890;8.970;2023-07-31T10:50:50;98573.00;;;17.20
18782;BMP180;9519;51.890;8.970;2023-07-31T10:55:57;98562.00;;;17.20
18782;BMP180;9519;51.890;8.970;2023-07-31T11:01:03;98561.00;;;17.20
18782;BMP180;9519;51.890;8.970;2023-07-31T11:06:06;98555.00;;;17.30
18782;BMP180;9519;51.890;8.970;2023-07-31T11:11:10;98553.00;;;17.30
18782;BMP180;9519;51.890;8.970;2023-07-31T11:16:14;98556.00;;;17.40
18782;BMP180;9519;51.890;8.970;2023-07-31T11:21:19;98569.00;;;17.40
18782;BMP180;9519;51.890;8.970;2023-07-31T11:26:24;98551.00;;;17.50
18782;BMP180;9519;51.890;8.970;2023-07-31T11:31:26;98562.00;;;17.50
18782;BMP180;9519;51.890;8.970;2023-07-31T11:36:29;98564.00;;;17.30
18782;BMP180;9519;51.890;8.970;2023-07-31T11:41:31;98562.00;;;17.10
18782;BMP180;9519;51.890;8.970;2023-07-31T11:46:33;98545.00;;;17.10
18782;BMP180;9519;51.890;8.970;2023-07-31T11:51:37;98549.00;;;17.10
18782;BMP180;9519;51.890;8.970;2023-07-31T11:56:40;98541.00;;;17.10
18782;BMP180;9519;51.890;8.970;2023-07-31T12:01:42;98542.00;;;17.10
18782;BMP180;9519;51.890;8.970;2023-07-31T12:06:46;98546.00;;;17.10
18782;BMP180;9519;51.890;8.970;2023-07-31T12:11:48;98539.00;;;17.20
18782;BMP180;9519;51.890;8.970;2023-07-31T12:16:54;98538.00;;;17.20
18782;BMP180;9519;51.890;8.970;2023-07-31T12:21:58;98530.00;;;17.10
18782;BMP180;9519;51.890;8.970;2023-07-31T12:27:08;98531.00;;;17.10
18782;BMP180;9519;51.890;8.970;2023-07-31T12:32:21;98541.00;;;17.20
18782;BMP180;9519;51.890;8.970;2023-07-31T12:37:26;98514.00;;;17.20
18782;BMP180;9519;51.890;8.970;2023-07-31T12:42:30;98522.00;;;17.10
18782;BMP180;9519;51.890;8.970;2023-07-31T12:47:32;98520.00;;;17.10
18782;BMP180;9519;51.890;8.970;2023-07-31T12:52:36;98505.00;;;17.10
18782;BMP180;9519;51.890;8.970;2023-07-31T12:57:39;98522.00;;;17.10
18782;BMP180;9519;51.890;8.970;2023-07-31T13:02:42;98519.00;;;17.20
18782;BMP180;9519;51.890;8.970;2023-07-31T13:07:45;98523.00;;;17.10
18782;BMP180;9519;51.890;8.970;2023-07-31T13:12:49;98507.00;;;17.10
18782;BMP180;9519;51.890;8.970;2023-07-31T13:17:51;98507.00;;;17.00
18782;BMP180;9519;51.890;8.970;2023-07-31T13:22:54;98513.00;;;17.00
18782;BMP180;9519;51.890;8.970;2023-07-31T13:27:57;98525.00;;;17.00
18782;BMP180;9519;51.890;8.970;2023-07-31T13:32:59;98508.00;;;17.00
18782;BMP180;9519;51.890;8.970;2023-07-31T13:38:02;98485.00;;;17.20
18782;BMP180;9519;51.890;8.970;2023-07-31T13:43:04;98489.00;;;17.50
18782;BMP180;9519;51.890;8.970;2023-07-31T13:48:06;98484.00;;;17.80
18782;BMP180;9519;51.890;8.970;2023-07-31T13:53:10;98478.00;;;17.90
18782;BMP180;9519;51.890;8.970;2023-07-31T13:58:12;98463.00;;;18.00
18782;BMP180;9519;51.890;8.970;2023-07-31T14:03:14;98466.00;;;18.10
18782;BMP180;9519;51.890;8.970;2023-07-31T14:08:18;98474.00;;;18.10
18782;BMP180;9519;51.890;8.970;2023-07-31T14:13:20;98474.00;;;18.00
18782;BMP180;9519;51.890;8.970;2023-07-31T14:18:22;98471.00;;;18.00
18782;BMP180;9519;51.890;8.970;2023-07-31T14:23:26;98456.00;;;18.00
18782;BMP180;9519;51.890;8.970;2023-07-31T14:28:28;98454.00;;;17.90
18782;BMP180;9519;51.890;8.970;2023-07-31T14:33:30;98460.00;;;17.80
18782;BMP180;9519;51.890;8.970;2023-07-31T14:38:34;98457.00;;;17.90
18782;BMP180;9519;51.890;8.970;2023-07-31T14:43:36;98479.00;;;17.70
18782;BMP180;9519;51.890;8.970;2023-07-31T14:48:38;98490.00;;;17.70
18782;BMP180;9519;51.890;8.970;2023-07-31T14:53:42;98488.00;;;17.60
18782;BMP180;9519;51.890;8.970;2023-07-31T14:58:44;98485.00;;;17.50
18782;BMP180;9519;51.890;8.970;2023-07-31T15:03:46;98490.00;;;17.50
18782;BMP180;9519;51.890;8.970;2023-07-31T15:08:50;98484.00;;;17.60
18782;BMP180;9519;51.890;8.970;2023-07-31T15:13:52;98477.00;;;17.60
18782;BMP180;9519;51.890;8.970;2023-07-31T15:18:54;98485.00;;;17.70
18782;BMP180;9519;51.890;8.970;2023-07-31T15:23:58;98447.00;;;17.70
18782;BMP180;9519;51.890;8.970;2023-07-31T15:29:04;98465.00;;;17.60
18782;BMP180;9519;51.890;8.970;2023-07-31T15:34:09;98448.00;;;17.60
18782;BMP180;9519;51.890;8.970;2023-07-31T15:39:12;98435.00;;;17.70
18782;BMP180;9519;51.890;8.970;2023-07-31T15:44:15;98448.00;;;17.70
18782;BMP180;9519;51.890;8.970;2023-07-31T15:49:17;98431.00;;;17.70
18782;BMP180;9519;51.890;8.970;2023-07-31T15:54:20;98433.00;;;17.70
18782;BMP180;9519;51.890;8.970;2023-07-31T15:59:23;98421.00;;;17.70
18782;BMP180;9519;51.890;8.970;2023-07-31T16:04:25;98431.00;;;17.70
18782;BMP180;9519;51.890;8.970;2023-07-31T16:09:29;98437.00;;;17.70
18782;BMP180;9519;51.890;8.970;2023-07-31T16:14:31;98430.00;;;17.80
18782;BMP180;9519;51.890;8.970;2023-07-31T16:19:33;98423.00;;;17.80
18782;BMP180;9519;51.890;8.970;2023-07-31T16:24:37;98405.00;;;17.80
18782;BMP180;9519;51.890;8.970;2023-07-31T16:29:39;98411.00;;;17.90
18782;BMP180;9519;51.890;8.970;2023-07-31T16:34:41;98405.00;;;17.90
18782;BMP180;9519;51.890;8.970;2023-07-31T16:39:45;98385.00;;;17.90
18782;BMP180;9519;51.890;8.970;2023-07-31T16:44:49;98394.00;;;17.90
18782;BMP180;9519;51.890;8.970;2023-07-31T16:49:51;98372.00;;;17.90
18782;BMP180;9519;51.890;8.970;2023-07-31T16:54:55;98361.00;;;17.90
18782;BMP180;9519;51.890;8.970;2023-07-31T16:59:57;98345.00;;;17.90
18782;BMP180;9519;51.890;8.970;2023-07-31T17:04:59;98340.00;;;18.00
18782;BMP180;9519;51.890;8.970;2023-07-31T17:16:20;98318.00;;;18.00
18782;BMP180;9519;51.890;8.970;2023-07-31T17:21:22;98310.00;;;18.00
18782;BMP180;9519;51.890;8.970;2023-07-31T17:26:24;98306.00;;;18.00
18782;BMP180;9519;51.890;8.970;2023-07-31T17:31:28;98301.00;;;18.00
18782;BMP180;9519;51.890;8.970;2023-07-31T17:36:30;98299.00;;;18.00
18782;BMP180;9519;51.890;8.970;2023-07-31T17:41:34;98296.00;;;18.00
18782;BMP180;9519;51.890;8.970;2023-07-31T17:46:37;98309.00;;;18.00
18782;BMP180;9519;51.890;8.970;2023-07-31T17:51:40;98287.00;;;17.90
18782;BMP180;9519;51.890;8.970;2023-07-31T17:56:42;98286.00;;;17.90
18782;BMP180;9519;51.890;8.970;2023-07-31T18:01:46;98282.00;;;18.00
18782;BMP180;9519;51.890;8.970;2023-07-31T18:06:48;98270.00;;;17.90
18782;BMP180;9519;51.890;8.970;2023-07-31T18:11:50;98259.00;;;17.90
18782;BMP180;9519;51.890;8.970;2023-07-31T18:16:54;98265.00;;;17.90
18782;BMP180;9519;51.890;8.970;2023-07-31T18:21:56;98264.00;;;17.90
18782;BMP180;9519;51.890;8.970;2023-07-31T18:26:59;98256.00;;;17.80
18782;BMP180;9519;51.890;8.970;2023-07-31T18:32:04;98258.00;;;17.70
18782;BMP180;9519;51.890;8.970;2023-07-31T18:37:06;98260.00;;;17.60
18782;BMP180;9519;51.890;8.970;2023-07-31T18:42:08;98257.00;;;17.50
18782;BMP180;9519;51.890;8.970;2023-07-31T18:47:12;98260.00;;;17.50
18782;BMP180;9519;51.890;8.970;2023-07-31T18:52:14;98255.00;;;17.40
18782;BMP180;9519;51.890;8.970;2023-07-31T18:57:16;98244.00;;;17.40
18782;BMP180;9519;51.890;8.970;2023-07-31T19:02:20;98248.00;;;17.30
18782;BMP180;9519;51.890;8.970;2023-07-31T19:07:22;98242.00;;;17.30
18782;BMP180;9519;51.890;8.970;2023-07-31T19:12:24;98244.00;;;17.30
18782;BMP180;9519;51.890;8.970;2023-07-31T19:17:28;98243.00;;;17.30
18782;BMP180;9519;51.890;8.970;2023-07-31T19:22:30;98240.00;;;17.20
18782;BMP180;9519;51.890;8.970;2023-07-31T19:27:32;98234.00;;;17.20
18782;BMP180;9519;51.890;8.970;2023-07-31T19:32:37;98216.00;;;17.10
18782;BMP180;9519;51.890;8.970;2023-07-31T19:37:39;98219.00;;;17.10
18782;BMP180;9519;51.890;8.970;2023-07-31T19:42:41;98204.00;;;17.00
18782;BMP180;9519;51.890;8.970;2023-07-31T19:47:44;98194.00;;;17.00
18782;BMP180;9519;51.890;8.970;2023-07-31T19:52:47;98186.00;;;16.90
18782;BMP180;9519;51.890;8.970;2023-07-31T19:57:49;98193.00;;;16.90
18782;BMP180;9519;51.890;8.970;2023-07-31T20:02:52;98177.00;;;16.80
18782;BMP180;9519;51.890;8.970;2023-07-31T20:07:55;98184.00;;;16.80
18782;BMP180;9519;51.890;8.970;2023-07-31T20:12:57;98152.00;;;16.70
18782;BMP180;9519;51.890;8.970;2023-07-31T20:18:01;98162.00;;;16.70
18782;BMP180;9519;51.890;8.970;2023-07-31T20:23:04;98147.00;;;16.60
18782;BMP180;9519;51.890;8.970;2023-07-31T20:28:06;98139.00;;;16.60
18782;BMP180;9519;51.890;8.970;2023-07-31T20:33:09;98126.00;;;16.60
18782;BMP180;9519;51.890;8.970;2023-07-31T20:38:12;98113.00;;;16.50
18782;BMP180;9519;51.890;8.970;2023-07-31T20:43:14;98086.00;;;16.50
18782;BMP180;9519;51.890;8.970;2023-07-31T20:48:20;98073.00;;;16.40
18782;BMP180;9519;51.890;8.970;2023-07-31T20:53:22;98054.00;;;16.40
18782;BMP180;9519;51.890;8.970;2023-07-31T20:58:24;98063.00;;;16.30
18782;BMP180;9519;51.890;8.970;2023-07-31T21:03:28;98038.00;;;16.30
18782;BMP180;9519;51.890;8.970;2023-07-31T21:08:32;98031.00;;;16.30
18782;BMP180;9519;51.890;8.970;2023-07-31T21:13:34;98030.00;;;16.30
18782;BMP180;9519;51.890;8.970;2023-07-31T21:18:38;98032.00;;;16.30
18782;BMP180;9519;51.890;8.970;2023-07-31T21:23:40;98018.00;;;16.20
18782;BMP180;9519;51.890;8.970;2023-07-31T21:28:42;98015.00;;;16.20
18782;BMP180;9519;51.890;8.970;2023-07-31T21:33:45;98005.00;;;16.20
18782;BMP180;9519;51.890;8.970;2023-07-31T21:38:47;97998.00;;;16.20
18782;BMP180;9519;51.890;8.970;2023-07-31T21:43:49;97982.00;;;16.20
18782;BMP180;9519;51.890;8.970;2023-07-31T21:48:53;97968.00;;;16.20
18782;BMP180;9519;51.890;8.970;2023-07-31T21:53:55;97966.00;;;16.20
18782;BMP180;9519;51.890;8.970;2023-07-31T21:58:57;97963.00;;;16.20
18782;BMP180;9519;51.890;8.970;2023-07-31T22:04:01;97969.00;;;16.20
18782;BMP180;9519;51.890;8.970;2023-07-31T22:09:04;97949.00;;;16.20
18782;BMP180;9519;51.890;8.970;2023-07-31T22:14:06;97939.00;;;16.20
18782;BMP180;9519;51.890;8.970;2023-07-31T22:19:10;97930.00;;;16.20
18782;BMP180;9519;51.890;8.970;2023-07-31T22:24:12;97934.00;;;16.30
18782;BMP180;9519;51.890;8.970;2023-07-31T22:29:14;97927.00;;;16.30
18782;BMP180;9519;51.890;8.970;2023-07-31T22:34:17;97926.00;;;16.30
18782;BMP180;9519;51.890;8.970;2023-07-31T22:39:19;97915.00;;;16.30
18782;BMP180;9519;51.890;8.970;2023-07-31T22:44:21;97925.00;;;16.30
18782;BMP180;9519;51.890;8.970;2023-07-31T22:49:25;97917.00;;;16.30
18782;BMP180;9519;51.890;8.970;2023-07-31T22:54:27;97900.00;;;16.30
18782;BMP180;9519;51.890;8.970;2023-07-31T22:59:29;97899.00;;;16.30
18782;BMP180;9519;51.890;8.970;2023-07-31T23:04:33;97878.00;;;16.30
18782;BMP180;9519;51.890;8.970;2023-07-31T23:09:35;97881.00;;;16.30
18782;BMP180;9519;51.890;8.970;2023-07-31T23:14:37;97886.00;;;16.30
18782;BMP180;9519;51.890;8.970;2023-07-31T23:19:40;97885.00;;;16.20
18782;BMP180;9519;51.890;8.970;2023-07-31T23:24:43;97870.00;;;16.20
18782;BMP180;9519;51.890;8.970;2023-07-31T23:29:45;97849.00;;;16.20
18782;BMP180;9519;51.890;8.970;2023-07-31T23:34:48;97832.00;;;16.20
18782;BMP180;9519;51.890;8.970;2023-07-31T23:39:51;97828.00;;;16.20
18782;BMP180;9519;51.890;8.970;2023-07-31T23:44:53;97827.00;;;16.20
18782;BMP180;9519;51.890;8.970;2023-07-31T23:49:56;97806.00;;;16.20
18782;BMP180;9519;51.890;8.970;2023-07-31T23:54:58;97802.00;;;16.20
